Portada
METAR-TAF:

METAR-TAF

Aeropuertos :

Aeropuerto Internacional Rey Abdulaziz

Yida, Arabia Saudita

latitud: 21-42N, longitud: 039-11E, altitud: 15 m

Observación

El informe se hizo hace 1 hora y 1 minutos, a las 16:00 UTC
Viento 6 kt del norte-noroeste
Temperatura 28°C
Humedad 62%
Presión 1011 hPa
Visibilidad 10 km o más
Escasas nubes a una altura de 4000 ft

METAR: OEJN 111600Z 33006KT 9999 FEW040 28/20 Q1011 NOSIG

Hora: 20:01 (17:01 UTC)

Pronóstico

El informe se hizo hace 6 horas y 1 minutos, a las 11:00 UTC
Pronóstico válido del 11 a las 12 UTC al 12 a las 18 UTC
Viento 15 kt del norte-noroeste
Visibilidad 10 km o más
Escasas nubes a una altura de 4000 ft
Evolucionando progresivamente
del 11 a las 18 UTC al 11 a las 20 UTC
Viento 8 kt del norte-noreste

TAF: OEJN 111100Z 1112/1218 33015KT 9999 FEW040 BECMG 1118/1120 02008KT

Observaciones y pronósticos meteorológicos de más de 4000 aeropuertos (mensajes METAR y TAF).

Los puntos amarillos y rojos representan las estaciones disponibles.

Ponga el ratón en el punto deseado para ver el nombre de la estación.

Haga clic para ver las observaciones y los pronósticos meteorológicos.

Para cambiar el mapa : haga clic en los botones verdes con una cruz de color negro para hacer un zoom, en el botón verde con un guión para alejar o en las flechas verdes para mapas adyacentes.


METAR-TAF: